createdAt,value
2022-12-11T00:00:23.778Z,28.23
2022-12-11T00:02:51.276Z,28.29
2022-12-11T00:05:18.644Z,28.27
2022-12-11T00:07:46.088Z,28.10
2022-12-11T00:10:13.774Z,28.05
2022-12-11T00:12:41.250Z,27.94
2022-12-11T00:15:09.150Z,28.06
2022-12-11T00:17:36.779Z,27.92
2022-12-11T00:20:05.164Z,28.19
2022-12-11T00:22:32.544Z,28.31
2022-12-11T00:24:59.881Z,28.29
2022-12-11T00:27:27.374Z,28.27
2022-12-11T00:29:54.603Z,28.31
2022-12-11T00:32:21.946Z,28.68
2022-12-11T00:34:49.162Z,28.67
2022-12-11T00:37:16.685Z,28.37
2022-12-11T00:39:44.112Z,28.26
2022-12-11T00:42:11.471Z,28.37
2022-12-11T00:44:38.742Z,28.14
2022-12-11T00:47:08.595Z,27.89
2022-12-11T00:49:36.013Z,28.08
2022-12-11T00:52:03.247Z,28.24
2022-12-11T00:54:30.513Z,28.19
2022-12-11T00:56:57.844Z,27.93
2022-12-11T00:59:25.538Z,27.76
2022-12-11T01:04:31.767Z,27.72
2022-12-11T01:06:59.370Z,27.83
2022-12-11T01:09:45.054Z,27.85
2022-12-11T01:12:12.388Z,27.72
2022-12-11T01:14:39.578Z,27.67
2022-12-11T01:17:06.884Z,27.72
2022-12-11T01:19:34.220Z,27.85
2022-12-11T01:22:01.554Z,27.73
2022-12-11T01:24:28.775Z,27.73
2022-12-11T01:26:56.070Z,28.08
2022-12-11T01:29:23.255Z,28.03
2022-12-11T01:31:50.584Z,28.26
2022-12-11T01:34:17.815Z,28.16
2022-12-11T01:36:45.116Z,27.42
2022-12-11T01:39:12.290Z,27.70
2022-12-11T01:41:39.719Z,27.96
2022-12-11T01:44:06.936Z,27.89
2022-12-11T01:46:35.458Z,28.07
2022-12-11T01:49:04.522Z,28.00
2022-12-11T01:51:34.543Z,28.21
2022-12-11T01:54:07.434Z,27.28
2022-12-11T01:56:35.992Z,27.38
2022-12-11T01:59:07.489Z,27.57
2022-12-11T02:01:37.924Z,27.80
2022-12-11T02:04:06.772Z,27.23
2022-12-11T02:06:44.283Z,27.88
2022-12-11T02:09:13.788Z,27.56
2022-12-11T02:11:47.641Z,27.98
2022-12-11T02:14:28.711Z,28.07
2022-12-11T02:17:00.268Z,28.03
2022-12-11T02:19:53.053Z,27.58
2022-12-11T02:22:46.787Z,28.08
2022-12-11T02:25:35.840Z,27.38
2022-12-11T02:28:12.383Z,27.58
2022-12-11T02:30:40.973Z,28.13
2022-12-11T02:33:11.651Z,27.56
2022-12-11T02:35:40.983Z,26.96
2022-12-11T02:38:10.790Z,27.22
2022-12-11T02:40:40.107Z,26.57
2022-12-11T02:43:10.244Z,27.88
2022-12-11T02:45:40.102Z,27.71
2022-12-11T02:48:09.960Z,27.77
2022-12-11T02:50:39.771Z,28.08
2022-12-11T02:53:08.293Z,27.72
2022-12-11T02:55:37.456Z,26.38
2022-12-11T02:58:08.283Z,27.93
2022-12-11T03:00:35.701Z,27.98
2022-12-11T03:03:03.158Z,27.76
2022-12-11T03:05:30.721Z,27.90
2022-12-11T03:07:58.088Z,27.76
2022-12-11T03:10:25.591Z,27.81
2022-12-11T03:12:55.080Z,27.74
2022-12-11T03:15:24.162Z,28.03
2022-12-11T03:17:54.683Z,27.78
2022-12-11T03:20:22.798Z,27.79
2022-12-11T03:22:56.090Z,27.83
2022-12-11T03:25:26.916Z,27.92
2022-12-11T03:28:08.192Z,27.63
2022-12-11T03:30:36.391Z,27.75
2022-12-11T03:33:12.045Z,27.71
2022-12-11T03:35:41.650Z,27.87
2022-12-11T03:38:12.060Z,27.67
2022-12-11T03:40:41.369Z,27.64
2022-12-11T03:43:11.157Z,27.55
2022-12-11T03:45:39.204Z,27.60
2022-12-11T03:48:07.652Z,27.63
2022-12-11T03:50:35.593Z,27.59
2022-12-11T03:53:03.806Z,27.51
2022-12-11T03:55:32.908Z,27.58
2022-12-11T03:58:00.282Z,27.62
2022-12-11T04:00:27.793Z,27.68
2022-12-11T04:03:14.048Z,27.73
2022-12-11T04:05:43.243Z,27.78
2022-12-11T04:08:10.974Z,27.78
2022-12-11T04:10:39.089Z,27.95
2022-12-11T04:13:06.433Z,27.49
2022-12-11T04:15:34.260Z,27.36
2022-12-11T04:18:20.268Z,27.55
2022-12-11T04:21:06.298Z,27.52
2022-12-11T04:23:51.860Z,27.66
2022-12-11T04:26:20.052Z,27.51
2022-12-11T04:28:48.268Z,27.52
2022-12-11T04:31:17.437Z,27.60
2022-12-11T04:33:44.971Z,27.76
2022-12-11T04:36:12.846Z,27.54
2022-12-11T04:38:40.677Z,27.21
2022-12-11T04:41:09.611Z,27.27
2022-12-11T04:43:37.241Z,27.74
2022-12-11T04:46:06.194Z,27.88
2022-12-11T04:48:33.836Z,27.51
2022-12-11T04:51:01.020Z,26.51
2022-12-11T04:53:28.635Z,26.99
2022-12-11T04:55:55.868Z,26.48
2022-12-11T04:58:23.783Z,27.19
2022-12-11T05:00:51.597Z,27.66
2022-12-11T05:03:19.196Z,27.68
2022-12-11T05:05:50.774Z,27.68
2022-12-11T05:08:18.906Z,26.54
2022-12-11T05:10:54.841Z,27.91
2022-12-11T05:13:22.366Z,27.43
2022-12-11T05:15:50.083Z,27.69
2022-12-11T05:18:17.422Z,27.19
2022-12-11T05:20:44.639Z,26.78
2022-12-11T05:23:11.976Z,27.87
2022-12-11T05:25:39.190Z,26.23
2022-12-11T05:28:06.414Z,27.82
2022-12-11T05:30:33.713Z,28.23
2022-12-11T05:33:01.105Z,27.05
2022-12-11T05:35:28.302Z,27.63
2022-12-11T05:37:55.533Z,27.34
2022-12-11T05:40:22.794Z,27.91
2022-12-11T05:42:50.134Z,28.11
2022-12-11T05:45:17.351Z,28.28
2022-12-11T05:47:44.632Z,27.73
2022-12-11T05:50:11.909Z,27.78
2022-12-11T05:52:39.223Z,27.50
2022-12-11T05:55:07.035Z,26.76
2022-12-11T05:57:34.260Z,27.61
2022-12-11T06:00:01.475Z,27.70
2022-12-11T06:02:31.060Z,28.21
2022-12-11T06:04:58.519Z,27.90
2022-12-11T06:07:25.721Z,27.96
2022-12-11T06:09:53.081Z,27.48
2022-12-11T06:12:20.427Z,26.65
2022-12-11T06:14:47.769Z,26.13
2022-12-11T06:17:15.062Z,27.35
2022-12-11T06:19:42.328Z,27.10
2022-12-11T06:22:09.540Z,26.57
2022-12-11T06:24:37.043Z,27.42
2022-12-11T06:27:04.247Z,27.69
2022-12-11T06:29:31.560Z,27.81
2022-12-11T06:31:58.831Z,26.82
2022-12-11T06:34:26.248Z,27.48
2022-12-11T06:36:53.452Z,27.58
2022-12-11T06:39:20.758Z,27.49
2022-12-11T06:41:48.000Z,27.80
2022-12-11T06:44:15.356Z,28.15
2022-12-11T06:46:42.632Z,27.95
2022-12-11T06:49:09.830Z,27.97
2022-12-11T06:51:37.090Z,27.93
2022-12-11T06:54:04.556Z,28.18
2022-12-11T06:56:34.202Z,28.23
2022-12-11T06:59:06.980Z,28.38
2022-12-11T07:01:34.890Z,27.67
2022-12-11T07:04:02.144Z,28.03
2022-12-11T07:06:29.625Z,28.07
2022-12-11T07:08:57.091Z,27.99
2022-12-11T07:11:24.742Z,28.12
2022-12-11T07:13:52.309Z,28.01
2022-12-11T07:16:19.663Z,28.17
2022-12-11T07:18:48.234Z,27.80
2022-12-11T07:21:15.595Z,28.19
2022-12-11T07:23:43.053Z,27.94
2022-12-11T07:26:12.566Z,27.34
2022-12-11T07:28:40.315Z,27.88
2022-12-11T07:31:08.610Z,27.75
2022-12-11T07:33:36.018Z,28.07
2022-12-11T07:36:04.143Z,27.50
2022-12-11T07:38:31.620Z,28.16
2022-12-11T07:41:02.046Z,27.74
2022-12-11T07:43:29.321Z,27.97
2022-12-11T07:46:00.568Z,28.08
2022-12-11T07:48:27.922Z,27.84
2022-12-11T07:50:55.112Z,28.05
2022-12-11T07:53:22.402Z,27.88
2022-12-11T07:55:49.606Z,27.87
2022-12-11T07:58:16.959Z,27.49
2022-12-11T08:00:45.056Z,25.97
2022-12-11T08:03:12.307Z,26.67
2022-12-11T08:05:39.519Z,27.37
2022-12-11T08:08:07.090Z,27.02
2022-12-11T08:10:34.282Z,26.82
2022-12-11T08:13:01.536Z,25.77
2022-12-11T08:15:28.859Z,25.11
2022-12-11T08:17:56.155Z,25.41
2022-12-11T08:20:23.301Z,25.29
2022-12-11T08:22:53.459Z,26.52
2022-12-11T08:25:24.778Z,26.53
2022-12-11T08:27:52.050Z,26.34
2022-12-11T08:30:19.301Z,26.95
2022-12-11T08:32:46.516Z,25.47
2022-12-11T08:35:13.875Z,26.76
2022-12-11T08:37:41.074Z,27.04
2022-12-11T08:40:08.799Z,26.95
2022-12-11T08:42:36.058Z,25.37
2022-12-11T08:45:03.559Z,25.08
2022-12-11T08:47:30.880Z,23.54
2022-12-11T08:49:58.145Z,24.03
2022-12-11T08:52:25.334Z,24.79
2022-12-11T08:54:52.714Z,25.40
2022-12-11T08:57:19.936Z,25.15
2022-12-11T08:59:47.182Z,24.75
2022-12-11T09:02:14.493Z,23.39
2022-12-11T09:04:42.048Z,23.63
2022-12-11T09:07:09.258Z,25.83
2022-12-11T09:09:36.634Z,25.56
2022-12-11T09:12:04.919Z,26.11
2022-12-11T09:14:32.196Z,25.70
2022-12-11T09:16:59.455Z,26.14
2022-12-11T09:19:32.021Z,27.29
2022-12-11T09:21:59.705Z,27.33
2022-12-11T09:24:26.935Z,27.04
2022-12-11T09:26:54.690Z,26.53
2022-12-11T09:29:21.886Z,26.53
2022-12-11T09:31:49.760Z,25.42
2022-12-11T09:34:16.994Z,26.46
2022-12-11T09:36:44.444Z,27.57
2022-12-11T09:39:13.131Z,27.20
2022-12-11T09:41:43.404Z,27.15
2022-12-11T09:44:36.915Z,26.74
2022-12-11T09:47:15.459Z,26.25
2022-12-11T09:49:44.207Z,27.84
2022-12-11T09:52:17.675Z,27.35
2022-12-11T09:54:50.264Z,27.03
2022-12-11T09:57:26.792Z,25.79
2022-12-11T10:00:17.203Z,27.04
2022-12-11T10:02:47.323Z,26.75
2022-12-11T10:05:27.806Z,27.48
2022-12-11T10:08:02.925Z,27.60
2022-12-11T10:10:44.846Z,25.26
2022-12-11T10:13:12.179Z,24.60
2022-12-11T10:15:41.059Z,24.76
2022-12-11T10:18:13.216Z,25.38
2022-12-11T10:20:42.768Z,26.29
2022-12-11T10:23:16.875Z,25.22
2022-12-11T10:25:54.043Z,25.05
2022-12-11T10:28:21.842Z,25.36
2022-12-11T10:31:01.451Z,25.46
2022-12-11T10:33:47.718Z,23.72
2022-12-11T10:36:17.873Z,23.82
2022-12-11T10:38:46.361Z,22.65
2022-12-11T10:41:18.537Z,22.42
2022-12-11T10:43:47.058Z,23.30
2022-12-11T10:46:19.030Z,25.27
2022-12-11T10:48:47.888Z,23.86
2022-12-11T10:51:15.677Z,25.39
2022-12-11T10:53:45.585Z,27.25
2022-12-11T10:56:13.608Z,26.37
2022-12-11T10:58:48.831Z,26.77
2022-12-11T11:01:18.956Z,27.80
2022-12-11T11:03:54.621Z,25.94
2022-12-11T11:06:22.942Z,27.00
2022-12-11T11:08:54.666Z,26.93
2022-12-11T11:11:36.894Z,26.87
2022-12-11T11:14:15.087Z,27.82
2022-12-11T11:16:47.009Z,27.50
2022-12-11T11:19:19.720Z,27.21
2022-12-11T11:21:49.205Z,26.79
2022-12-11T11:24:39.714Z,27.22
2022-12-11T11:27:14.044Z,26.87
2022-12-11T11:29:41.852Z,27.07
2022-12-11T11:32:17.683Z,27.53
2022-12-11T11:34:45.087Z,26.35
2022-12-11T11:37:22.719Z,25.43
2022-12-11T11:39:53.063Z,26.79
2022-12-11T11:42:29.956Z,25.79
2022-12-11T11:45:06.099Z,24.60
2022-12-11T11:47:37.847Z,25.90
2022-12-11T11:50:08.507Z,26.27
2022-12-11T11:52:54.509Z,25.33
2022-12-11T11:55:33.682Z,25.72
2022-12-11T11:58:10.994Z,25.64
2022-12-11T12:00:38.363Z,25.30
2022-12-11T12:03:14.018Z,25.57
2022-12-11T12:06:00.298Z,24.27
2022-12-11T12:08:41.535Z,26.89
2022-12-11T12:11:14.779Z,24.57
2022-12-11T12:14:17.613Z,24.66
2022-12-11T12:17:11.519Z,24.76
2022-12-11T12:19:42.146Z,24.38
2022-12-11T12:22:15.747Z,24.90
2022-12-11T12:24:42.942Z,24.01
2022-12-11T12:27:51.682Z,23.82
2022-12-11T12:30:22.055Z,24.12
2022-12-11T12:32:56.496Z,24.43
2022-12-11T12:35:26.682Z,24.33
2022-12-11T12:38:09.554Z,23.85
2022-12-11T12:40:40.330Z,23.94
2022-12-11T12:43:20.731Z,23.02
2022-12-11T12:45:54.068Z,22.20
2022-12-11T12:48:22.471Z,21.83
2022-12-11T12:50:50.892Z,20.99
2022-12-11T12:53:23.715Z,24.38
2022-12-11T12:55:51.943Z,25.49
2022-12-11T12:58:26.750Z,23.54
2022-12-11T13:00:55.054Z,23.10
2022-12-11T13:03:27.008Z,22.12
2022-12-11T13:06:04.935Z,23.72
2022-12-11T13:08:51.937Z,23.43
2022-12-11T13:11:20.833Z,25.66
2022-12-11T13:13:55.193Z,26.96
2022-12-11T13:16:26.794Z,27.40
2022-12-11T13:18:54.650Z,26.32
2022-12-11T13:21:27.415Z,26.97
2022-12-11T13:23:55.844Z,27.23
2022-12-11T13:26:30.731Z,27.39
2022-12-11T13:28:58.424Z,27.63
2022-12-11T13:31:30.289Z,25.97
2022-12-11T13:34:02.969Z,24.54
2022-12-11T13:36:31.594Z,24.90
2022-12-11T13:39:04.779Z,23.14
2022-12-11T13:41:34.182Z,24.56
2022-12-11T13:44:02.585Z,24.22
2022-12-11T13:46:32.070Z,23.92
2022-12-11T13:49:04.960Z,24.90
2022-12-11T13:51:35.333Z,23.89
2022-12-11T13:54:06.975Z,24.76
2022-12-11T13:56:34.474Z,25.60
2022-12-11T13:59:01.773Z,26.48
2022-12-11T14:01:31.625Z,27.26
2022-12-11T14:04:09.178Z,27.07
2022-12-11T14:06:38.370Z,26.99
2022-12-11T14:09:06.852Z,27.31
2022-12-11T14:11:36.020Z,27.93
2022-12-11T14:14:04.867Z,27.00
2022-12-11T14:16:32.482Z,26.16
2022-12-11T14:19:04.538Z,27.18
2022-12-11T14:21:32.254Z,27.65
2022-12-11T14:24:00.552Z,27.17
2022-12-11T14:26:29.038Z,27.15
2022-12-11T14:28:56.279Z,25.59
2022-12-11T14:31:27.644Z,26.46
2022-12-11T14:33:58.309Z,26.07
2022-12-11T14:36:26.547Z,25.01
2022-12-11T14:38:59.603Z,25.55
2022-12-11T14:41:34.147Z,25.43
2022-12-11T14:44:04.442Z,24.30
2022-12-11T14:46:42.554Z,24.65
2022-12-11T14:49:33.230Z,24.46
2022-12-11T14:52:01.172Z,23.99
2022-12-11T14:54:31.369Z,24.09
2022-12-11T14:57:01.035Z,24.38
2022-12-11T14:59:32.004Z,24.09
2022-12-11T15:02:01.130Z,25.80
2022-12-11T15:04:31.474Z,24.92
2022-12-11T15:06:59.788Z,25.04
2022-12-11T15:09:27.258Z,25.25
2022-12-11T15:11:56.353Z,24.57
2022-12-11T15:14:24.587Z,24.95
2022-12-11T15:16:53.884Z,25.53
2022-12-11T15:19:21.189Z,25.10
2022-12-11T15:21:49.039Z,24.74
2022-12-11T15:24:34.951Z,25.62
2022-12-11T15:27:02.271Z,23.83
2022-12-11T15:29:30.236Z,25.17
2022-12-11T15:32:01.863Z,24.38
2022-12-11T15:34:33.834Z,25.46
2022-12-11T15:37:01.428Z,25.41
2022-12-11T15:39:28.641Z,25.28
2022-12-11T15:41:55.898Z,25.36
2022-12-11T15:44:23.938Z,25.12
2022-12-11T15:46:51.286Z,25.67
2022-12-11T15:49:24.017Z,24.77
2022-12-11T15:51:51.345Z,24.90
2022-12-11T15:54:18.616Z,25.50
2022-12-11T15:56:45.866Z,25.16
2022-12-11T15:59:13.099Z,25.02
2022-12-11T16:01:40.514Z,26.04
2022-12-11T16:04:07.823Z,24.42
2022-12-11T16:06:35.028Z,24.74
2022-12-11T16:09:04.119Z,24.47
2022-12-11T16:11:31.872Z,24.87
2022-12-11T16:13:59.066Z,25.22
2022-12-11T16:16:26.352Z,25.01
2022-12-11T16:18:53.598Z,24.29
2022-12-11T16:21:21.737Z,24.33
2022-12-11T16:23:49.192Z,24.42
2022-12-11T16:26:16.445Z,25.51
2022-12-11T16:28:43.706Z,25.47
2022-12-11T16:31:11.716Z,26.38
2022-12-11T16:33:39.374Z,25.23
2022-12-11T16:36:13.827Z,25.74
2022-12-11T16:38:41.227Z,25.79
2022-12-11T16:41:08.443Z,25.39
2022-12-11T16:43:35.656Z,25.13
2022-12-11T16:46:03.046Z,25.23
2022-12-11T16:48:30.467Z,24.98
2022-12-11T16:50:57.824Z,24.91
2022-12-11T16:53:25.091Z,24.56
2022-12-11T16:55:52.300Z,24.20
2022-12-11T16:58:20.278Z,24.13
2022-12-11T17:00:47.821Z,24.61
2022-12-11T17:03:15.471Z,24.53
2022-12-11T17:05:43.464Z,24.19
2022-12-11T17:08:12.957Z,24.47
2022-12-11T17:10:41.056Z,24.20
2022-12-11T17:13:08.306Z,25.30
2022-12-11T17:15:39.204Z,24.98
2022-12-11T17:18:06.491Z,24.75
2022-12-11T17:20:33.763Z,25.37
2022-12-11T17:23:01.575Z,25.06
2022-12-11T17:25:28.959Z,25.55
2022-12-11T17:27:56.526Z,25.10
2022-12-11T17:30:23.786Z,25.34
2022-12-11T17:32:51.066Z,24.80
2022-12-11T17:35:18.477Z,25.30
2022-12-11T17:37:46.350Z,25.86
2022-12-11T17:40:13.635Z,24.84
2022-12-11T17:42:44.045Z,24.73
2022-12-11T17:45:11.816Z,25.06
2022-12-11T17:47:39.197Z,24.94
2022-12-11T17:50:06.771Z,24.73
2022-12-11T17:52:36.412Z,24.12
2022-12-11T17:55:06.419Z,24.03
2022-12-11T17:57:34.112Z,24.98
2022-12-11T18:00:01.446Z,24.70
2022-12-11T18:02:28.762Z,24.52
2022-12-11T18:04:56.147Z,25.06
2022-12-11T18:07:23.350Z,24.75
2022-12-11T18:09:50.602Z,24.91
2022-12-11T18:12:17.820Z,24.97
2022-12-11T18:14:45.072Z,25.36
2022-12-11T18:17:12.344Z,25.08
2022-12-11T18:19:45.745Z,24.90
2022-12-11T18:22:13.981Z,24.54
2022-12-11T18:24:41.447Z,25.02
2022-12-11T18:27:11.091Z,25.67
2022-12-11T18:29:38.345Z,25.12
2022-12-11T18:32:05.762Z,24.84
2022-12-11T18:34:33.174Z,25.51
2022-12-11T18:37:00.404Z,24.86
2022-12-11T18:39:27.737Z,25.81
2022-12-11T18:42:30.632Z,24.63
2022-12-11T18:44:43.424Z,25.45
2022-12-11T18:47:10.608Z,24.88
2022-12-11T18:49:37.971Z,24.88
2022-12-11T18:52:05.742Z,24.62
2022-12-11T18:54:33.283Z,25.03
2022-12-11T18:57:00.542Z,24.93
2022-12-11T18:59:27.883Z,25.08
2022-12-11T19:01:56.688Z,24.75
2022-12-11T19:04:24.221Z,25.29
2022-12-11T19:06:51.524Z,24.85
2022-12-11T19:09:18.789Z,24.76
2022-12-11T19:11:46.509Z,24.86
2022-12-11T19:14:13.943Z,24.33
2022-12-11T19:16:42.795Z,24.33
2022-12-11T19:19:14.659Z,24.18
2022-12-11T19:21:42.224Z,25.40
2022-12-11T19:24:11.877Z,25.04
2022-12-11T19:26:39.170Z,25.40
2022-12-11T19:29:06.862Z,25.12
2022-12-11T19:31:34.692Z,24.80
2022-12-11T19:34:02.189Z,24.38
2022-12-11T19:36:30.658Z,24.45
2022-12-11T19:39:01.481Z,24.80
2022-12-11T19:41:30.394Z,24.17
2022-12-11T19:43:58.592Z,25.38
2022-12-11T19:46:26.556Z,24.95
2022-12-11T19:48:54.869Z,24.81
2022-12-11T19:51:23.837Z,25.18
2022-12-11T19:53:51.640Z,25.40
2022-12-11T19:56:19.074Z,24.71
2022-12-11T19:58:46.838Z,25.17
2022-12-11T20:01:22.519Z,25.65
2022-12-11T20:03:49.912Z,25.76
2022-12-11T20:06:17.267Z,25.14
2022-12-11T20:08:45.896Z,25.24
2022-12-11T20:11:18.047Z,25.41
2022-12-11T20:13:49.625Z,25.27
2022-12-11T20:16:17.664Z,24.54
2022-12-11T20:18:45.337Z,25.72
2022-12-11T20:21:15.088Z,24.97
2022-12-11T20:23:42.898Z,25.35
2022-12-11T20:26:11.563Z,25.32
2022-12-11T20:28:39.043Z,24.78
2022-12-11T20:31:09.055Z,25.04
2022-12-11T20:33:36.328Z,25.23
2022-12-11T20:36:10.671Z,25.38
2022-12-11T20:38:38.477Z,25.53
2022-12-11T20:41:06.727Z,25.71
2022-12-11T20:43:34.118Z,25.67
2022-12-11T20:46:03.518Z,25.57
2022-12-11T20:48:30.927Z,25.33
2022-12-11T20:51:02.459Z,25.37
2022-12-11T20:53:30.008Z,25.13
2022-12-11T20:55:57.302Z,26.58
2022-12-11T20:58:24.723Z,26.15
2022-12-11T21:00:52.344Z,25.43
2022-12-11T21:03:19.651Z,25.32
2022-12-11T21:05:47.457Z,25.77
2022-12-11T21:08:14.873Z,25.67
2022-12-11T21:10:43.052Z,25.09
2022-12-11T21:13:10.350Z,25.57
2022-12-11T21:15:38.277Z,24.30
2022-12-11T21:18:06.463Z,26.13
2022-12-11T21:20:33.887Z,25.98
2022-12-11T21:23:01.422Z,24.36
2022-12-11T21:25:28.641Z,25.16
2022-12-11T21:27:56.001Z,24.97
2022-12-11T21:30:23.283Z,25.70
2022-12-11T21:32:50.578Z,26.16
2022-12-11T21:35:17.886Z,26.15
2022-12-11T21:37:45.133Z,25.77
2022-12-11T21:40:14.773Z,25.30
2022-12-11T21:42:42.114Z,25.37
2022-12-11T21:47:56.997Z,25.28
2022-12-11T21:50:24.171Z,25.18
2022-12-11T21:52:51.431Z,24.94
2022-12-11T21:55:19.443Z,25.29
2022-12-11T21:57:46.745Z,25.88
2022-12-11T22:00:14.192Z,25.50
2022-12-11T22:02:41.543Z,25.74
2022-12-11T22:05:09.346Z,25.95
2022-12-11T22:07:36.739Z,25.97
2022-12-11T22:10:04.551Z,25.69
2022-12-11T22:12:32.109Z,25.73
2022-12-11T22:14:59.518Z,26.07
2022-12-11T22:17:27.152Z,26.31
2022-12-11T22:19:55.895Z,26.41
2022-12-11T22:22:23.207Z,25.72
2022-12-11T22:24:50.906Z,25.73
2022-12-11T22:27:23.454Z,25.69
2022-12-11T22:29:51.254Z,26.13
2022-12-11T22:32:18.428Z,25.95
2022-12-11T22:34:45.987Z,26.27
2022-12-11T22:37:13.237Z,25.66
2022-12-11T22:39:40.493Z,24.92
2022-12-11T22:42:07.714Z,25.80
2022-12-11T22:44:34.973Z,25.79
2022-12-11T22:47:02.177Z,25.49
2022-12-11T22:49:29.472Z,25.41
2022-12-11T22:51:57.971Z,25.84
2022-12-11T22:54:25.227Z,25.42
2022-12-11T22:56:52.494Z,25.51
2022-12-11T22:59:19.891Z,25.58
2022-12-11T23:01:47.071Z,25.77
2022-12-11T23:04:14.265Z,25.70
2022-12-11T23:06:41.652Z,25.90
2022-12-11T23:09:09.010Z,26.14
2022-12-11T23:11:37.193Z,26.29
2022-12-11T23:14:05.617Z,25.19
2022-12-11T23:16:32.980Z,24.76
2022-12-11T23:19:00.398Z,24.65
2022-12-11T23:21:28.662Z,25.13
2022-12-11T23:23:56.411Z,24.84
2022-12-11T23:26:24.417Z,24.87
2022-12-11T23:28:51.738Z,25.20
2022-12-11T23:31:19.423Z,25.08
2022-12-11T23:33:46.776Z,24.98
2022-12-11T23:36:14.465Z,25.28
2022-12-11T23:38:41.784Z,26.13
2022-12-11T23:41:10.126Z,25.64
2022-12-11T23:43:37.648Z,25.64
2022-12-11T23:46:07.573Z,25.86
2022-12-11T23:48:34.922Z,25.53
2022-12-11T23:51:03.720Z,25.15
2022-12-11T23:53:30.953Z,25.91
2022-12-11T23:56:02.409Z,26.33
2022-12-11T23:58:29.937Z,27.02
